Time;durP1;ratioP1;P1;durP2;ratioP2;P2;SDS_P1;SDS_P2;PMS_P1;PMS_P2;Temp;Humidity;BMP_temperature;BMP_pressure;BME280_temperature;BME280_humidity;BME280_pressure;Samples;Min_cycle;Max_cycle;Signal;HPM_P1;HPM_P2
2024/03/15 00:00:27;;;;;;;16.05;12.57;;;;;;;;;;6272585;22;20039;-72
2024/03/15 00:03:03;;;;;;;19.00;13.15;;;;;;;;;;6233863;22;20020;-74
2024/03/15 00:05:30;;;;;;;17.50;10.82;;;;;;;;;;6239694;22;20153;-73
2024/03/15 00:07:56;;;;;;;9.45;8.55;;;;;;;;;;6225833;22;20019;-74
2024/03/15 00:10:23;;;;;;;12.82;10.50;;;;;;;;;;6201095;22;20050;-72
2024/03/15 00:12:50;;;;;;;17.95;13.68;;;;;;;;;;6198105;22;20015;-71
2024/03/15 00:15:18;;;;;;;12.00;10.43;;;;;;;;;;6274686;22;20012;-73
2024/03/15 00:17:44;;;;;;;23.02;14.60;;;;;;;;;;6224896;22;20073;-73
2024/03/15 00:20:16;;;;;;;20.35;13.43;;;;;;;;;;6225243;22;20510;-73
2024/03/15 00:22:43;;;;;;;14.05;11.30;;;;;;;;;;6222904;22;20012;-73
2024/03/15 00:25:20;;;;;;;16.63;11.63;;;;;;;;;;6250488;22;20071;-73
2024/03/15 00:27:47;;;;;;;24.63;13.43;;;;;;;;;;6225349;22;20019;-72
2024/03/15 00:30:16;;;;;;;16.33;12.05;;;;;;;;;;6198493;22;20012;-73
2024/03/15 00:32:42;;;;;;;14.73;12.50;;;;;;;;;;6132686;23;20498;-71
2024/03/15 00:35:19;;;;;;;20.17;13.45;;;;;;;;;;6041180;23;20451;-72
2024/03/15 00:37:49;;;;;;;16.77;12.73;;;;;;;;;;6066169;23;20540;-73
2024/03/15 00:40:16;;;;;;;14.38;12.10;;;;;;;;;;6018762;23;20478;-73
2024/03/15 00:42:43;;;;;;;21.92;13.93;;;;;;;;;;6140866;23;20342;-73
2024/03/15 00:45:10;;;;;;;11.00;9.90;;;;;;;;;;6043264;23;20411;-73
2024/03/15 00:47:36;;;;;;;26.52;16.90;;;;;;;;;;6066736;23;20014;-73
2024/03/15 00:50:02;;;;;;;29.25;17.40;;;;;;;;;;6066001;23;20014;-73
2024/03/15 00:52:28;;;;;;;27.02;16.92;;;;;;;;;;6089088;22;20049;-72
2024/03/15 00:55:19;;;;;;;17.58;13.73;;;;;;;;;;6050407;23;20010;-73
2024/03/15 00:57:48;;;;;;;26.55;14.52;;;;;;;;;;6064640;23;20011;-74
2024/03/15 01:00:15;;;;;;;20.15;13.73;;;;;;;;;;6039432;23;20019;-72
2024/03/15 01:02:42;;;;;;;23.02;15.85;;;;;;;;;;6087143;22;20011;-73
2024/03/15 01:05:08;;;;;;;22.15;15.65;;;;;;;;;;6246289;22;20023;-73
2024/03/15 01:07:34;;;;;;;20.08;14.50;;;;;;;;;;6273140;22;20387;-71
2024/03/15 01:10:00;;;;;;;26.75;18.58;;;;;;;;;;6196148;22;20087;-72
2024/03/15 01:12:26;;;;;;;24.90;14.40;;;;;;;;;;6194358;22;20011;-72
2024/03/15 01:14:52;;;;;;;22.00;14.13;;;;;;;;;;6195758;22;20015;-72
2024/03/15 01:17:19;;;;;;;17.52;15.15;;;;;;;;;;6194963;22;20089;-72
2024/03/15 01:19:45;;;;;;;21.42;13.85;;;;;;;;;;6221188;22;20015;-73
2024/03/15 01:22:11;;;;;;;25.85;17.75;;;;;;;;;;6193674;22;20069;-73
2024/03/15 01:24:37;;;;;;;24.63;17.23;;;;;;;;;;6195713;22;20062;-71
2024/03/15 01:27:03;;;;;;;27.17;17.55;;;;;;;;;;6221964;22;20012;-72
2024/03/15 01:29:29;;;;;;;28.67;18.00;;;;;;;;;;6245158;22;20549;-72
2024/03/15 01:31:56;;;;;;;32.50;18.55;;;;;;;;;;6271649;22;20015;-72
2024/03/15 01:34:22;;;;;;;36.83;22.48;;;;;;;;;;6272596;22;20016;-74
2024/03/15 01:36:48;;;;;;;28.77;19.85;;;;;;;;;;6273277;22;20024;-72
2024/03/15 01:39:14;;;;;;;36.63;24.35;;;;;;;;;;6247099;22;20015;-73
2024/03/15 01:41:40;;;;;;;34.50;22.15;;;;;;;;;;6270319;22;20019;-72
2024/03/15 01:44:06;;;;;;;23.23;14.10;;;;;;;;;;6271039;22;20042;-72
2024/03/15 01:46:33;;;;;;;28.02;17.10;;;;;;;;;;6270679;22;20015;-72
2024/03/15 01:48:59;;;;;;;36.75;19.25;;;;;;;;;;6273512;22;20015;-72
2024/03/15 01:51:26;;;;;;;32.55;19.80;;;;;;;;;;6272063;22;20460;-73
2024/03/15 01:53:52;;;;;;;24.00;16.55;;;;;;;;;;6270094;22;20020;-72
2024/03/15 01:56:20;;;;;;;40.05;27.02;;;;;;;;;;6221391;22;20004;-73
2024/03/15 01:58:46;;;;;;;37.22;22.73;;;;;;;;;;6271461;22;20015;-73
2024/03/15 02:01:11;;;;;;;35.55;23.85;;;;;;;;;;6272599;22;20054;-72
2024/03/15 02:03:37;;;;;;;36.13;24.65;;;;;;;;;;6272078;22;20019;-72
2024/03/15 02:06:05;;;;;;;22.80;14.93;;;;;;;;;;6271072;22;20020;-72
2024/03/15 02:08:33;;;;;;;28.27;16.70;;;;;;;;;;6274223;22;20341;-72
2024/03/15 02:10:59;;;;;;;39.10;24.17;;;;;;;;;;6274336;22;20015;-73
2024/03/15 02:13:25;;;;;;;42.13;21.83;;;;;;;;;;6246481;22;20345;-72
2024/03/15 02:15:51;;;;;;;37.55;22.13;;;;;;;;;;6274287;22;20352;-72
2024/03/15 02:18:18;;;;;;;23.52;17.05;;;;;;;;;;6274655;22;20008;-72
2024/03/15 02:20:44;;;;;;;35.95;21.25;;;;;;;;;;6273783;22;20034;-72
2024/03/15 02:23:09;;;;;;;28.63;17.38;;;;;;;;;;6271569;22;20016;-72
2024/03/15 02:25:36;;;;;;;45.70;25.83;;;;;;;;;;6273912;22;20054;-72
2024/03/15 02:28:04;;;;;;;41.20;24.20;;;;;;;;;;6274670;22;20011;-73
2024/03/15 02:30:30;;;;;;;45.63;25.92;;;;;;;;;;6272076;22;20094;-72
2024/03/15 02:32:56;;;;;;;21.88;16.52;;;;;;;;;;6245835;22;20038;-72
2024/03/15 02:35:21;;;;;;;35.67;21.13;;;;;;;;;;6272300;22;20015;-72
2024/03/15 02:37:47;;;;;;;46.13;29.88;;;;;;;;;;6272273;22;20077;-73
2024/03/15 02:40:14;;;;;;;43.42;23.73;;;;;;;;;;6274264;22;20015;-73
2024/03/15 02:42:42;;;;;;;39.90;23.77;;;;;;;;;;6272383;22;20471;-73
2024/03/15 02:45:08;;;;;;;45.78;25.35;;;;;;;;;;6274304;22;20007;-72
2024/03/15 02:47:36;;;;;;;28.63;16.83;;;;;;;;;;6273299;22;20042;-72
2024/03/15 02:50:03;;;;;;;43.15;24.70;;;;;;;;;;6273910;22;20011;-72
2024/03/15 02:52:28;;;;;;;52.10;28.80;;;;;;;;;;6272576;22;20015;-72
2024/03/15 02:54:56;;;;;;;35.95;23.77;;;;;;;;;;6274013;22;20012;-72
2024/03/15 02:57:23;;;;;;;31.48;20.58;;;;;;;;;;6274308;22;20352;-72
2024/03/15 02:59:48;;;;;;;33.30;21.02;;;;;;;;;;6272108;22;20019;-72
2024/03/15 03:02:16;;;;;;;36.05;21.27;;;;;;;;;;6271272;22;20487;-73
2024/03/15 03:04:42;;;;;;;22.27;13.80;;;;;;;;;;6273469;22;20016;-73
2024/03/15 03:07:08;;;;;;;31.98;18.88;;;;;;;;;;6272005;22;20583;-71
2024/03/15 03:09:34;;;;;;;35.05;21.40;;;;;;;;;;6275618;22;20011;-72
2024/03/15 03:12:01;;;;;;;39.03;23.35;;;;;;;;;;6273077;22;20018;-72
2024/03/15 03:14:27;;;;;;;41.28;26.42;;;;;;;;;;6272299;22;20012;-73
2024/03/15 03:16:52;;;;;;;39.67;22.02;;;;;;;;;;6273400;22;20101;-72
2024/03/15 03:19:18;;;;;;;32.33;21.33;;;;;;;;;;6246684;22;20020;-72
2024/03/15 03:21:47;;;;;;;36.25;21.77;;;;;;;;;;6269709;22;20345;-72
2024/03/15 03:24:14;;;;;;;37.33;23.98;;;;;;;;;;6274038;22;20098;-73
2024/03/15 03:26:41;;;;;;;39.00;22.55;;;;;;;;;;6273013;22;20015;-73
2024/03/15 03:29:07;;;;;;;46.15;23.40;;;;;;;;;;6272077;22;20014;-73
2024/03/15 03:31:33;;;;;;;28.13;18.58;;;;;;;;;;6245829;22;20011;-73
2024/03/15 03:33:59;;;;;;;35.60;22.52;;;;;;;;;;6272274;22;20027;-74
2024/03/15 03:36:26;;;;;;;26.85;18.63;;;;;;;;;;6273550;22;20337;-72
2024/03/15 03:38:53;;;;;;;32.05;21.35;;;;;;;;;;6269301;22;20083;-72
2024/03/15 03:41:21;;;;;;;46.50;24.60;;;;;;;;;;6271960;22;20023;-73
2024/03/15 03:43:47;;;;;;;36.97;23.42;;;;;;;;;;6271317;22;20534;-73
2024/03/15 03:46:15;;;;;;;30.73;17.67;;;;;;;;;;6271863;22;20016;-73
2024/03/15 03:48:41;;;;;;;34.08;19.70;;;;;;;;;;6246440;22;20015;-73
2024/03/15 03:51:07;;;;;;;32.88;22.50;;;;;;;;;;6271870;22;20539;-74
2024/03/15 03:53:33;;;;;;;15.45;13.77;;;;;;;;;;6244687;22;20015;-72
2024/03/15 03:55:59;;;;;;;41.70;24.83;;;;;;;;;;6246338;22;20011;-73
2024/03/15 03:58:25;;;;;;;34.22;23.48;;;;;;;;;;6271716;22;20030;-74
2024/03/15 04:00:51;;;;;;;42.30;25.65;;;;;;;;;;6270979;22;20372;-74
2024/03/15 04:03:17;;;;;;;28.65;17.35;;;;;;;;;;6270426;22;20531;-73
2024/03/15 04:05:44;;;;;;;24.38;18.60;;;;;;;;;;6273096;22;20097;-74
2024/03/15 04:08:13;;;;;;;28.25;18.05;;;;;;;;;;6275011;22;20016;-73
2024/03/15 04:10:39;;;;;;;15.15;11.63;;;;;;;;;;6270992;22;20414;-73
2024/03/15 04:13:06;;;;;;;42.85;23.15;;;;;;;;;;6269545;22;20020;-75
2024/03/15 04:15:33;;;;;;;20.52;13.98;;;;;;;;;;6246366;22;20011;-75
2024/03/15 04:18:02;;;;;;;34.60;21.08;;;;;;;;;;6273122;22;20015;-74
2024/03/15 04:20:29;;;;;;;40.70;22.02;;;;;;;;;;6271378;22;20150;-75
2024/03/15 04:22:56;;;;;;;42.42;24.33;;;;;;;;;;6272480;22;20020;-73
2024/03/15 04:25:23;;;;;;;40.22;23.08;;;;;;;;;;6246574;22;20015;-75
2024/03/15 04:27:51;;;;;;;44.38;22.95;;;;;;;;;;6245623;22;20098;-74
2024/03/15 04:30:18;;;;;;;30.05;19.92;;;;;;;;;;6272047;22;20011;-74
2024/03/15 04:32:46;;;;;;;42.17;24.90;;;;;;;;;;6243562;22;20012;-74
2024/03/15 04:35:15;;;;;;;43.92;24.35;;;;;;;;;;6270334;22;20038;-73
2024/03/15 04:37:41;;;;;;;43.47;24.02;;;;;;;;;;6271431;22;20012;-74
2024/03/15 04:40:10;;;;;;;45.47;26.35;;;;;;;;;;6273309;22;20087;-74
2024/03/15 04:42:37;;;;;;;35.80;20.02;;;;;;;;;;6269147;22;20017;-73
2024/03/15 04:45:09;;;;;;;41.47;25.35;;;;;;;;;;6273785;22;20037;-74
2024/03/15 04:47:38;;;;;;;29.80;22.67;;;;;;;;;;6273606;22;20016;-73
2024/03/15 04:50:05;;;;;;;27.52;17.38;;;;;;;;;;6273863;22;20034;-73
2024/03/15 04:52:31;;;;;;;27.98;18.77;;;;;;;;;;6270105;22;20008;-73
2024/03/15 04:54:57;;;;;;;37.17;24.58;;;;;;;;;;6267889;22;20038;-72
2024/03/15 04:57:25;;;;;;;32.33;21.55;;;;;;;;;;6271850;22;20007;-72
2024/03/15 04:59:51;;;;;;;39.75;27.35;;;;;;;;;;6271081;22;20050;-71
2024/03/15 05:02:17;;;;;;;32.28;21.92;;;;;;;;;;6268509;22;20012;-73
2024/03/15 05:04:43;;;;;;;22.90;17.23;;;;;;;;;;6273446;22;20086;-74
2024/03/15 05:07:12;;;;;;;33.60;21.67;;;;;;;;;;6270781;22;20011;-71
2024/03/15 05:09:38;;;;;;;32.60;22.92;;;;;;;;;;6244089;22;20018;-71
2024/03/15 05:12:08;;;;;;;32.08;21.17;;;;;;;;;;6269894;22;20025;-71
2024/03/15 05:14:35;;;;;;;34.58;22.90;;;;;;;;;;6269820;22;20360;-71
2024/03/15 05:17:02;;;;;;;30.95;22.73;;;;;;;;;;6272012;22;20023;-71
2024/03/15 05:19:29;;;;;;;28.70;20.35;;;;;;;;;;6270004;22;20016;-70
2024/03/15 05:21:55;;;;;;;32.92;21.52;;;;;;;;;;6269236;22;20098;-70
2024/03/15 05:24:21;;;;;;;32.35;20.83;;;;;;;;;;6271907;22;20035;-70
2024/03/15 05:26:47;;;;;;;30.25;22.15;;;;;;;;;;6269465;22;20018;-70
2024/03/15 05:29:14;;;;;;;28.73;19.23;;;;;;;;;;6243394;22;20011;-70
2024/03/15 05:31:40;;;;;;;34.28;23.30;;;;;;;;;;6269288;22;20007;-71
2024/03/15 05:34:07;;;;;;;22.95;15.85;;;;;;;;;;6270329;22;20102;-71
2024/03/15 05:36:34;;;;;;;32.63;23.17;;;;;;;;;;6269513;22;20007;-70
2024/03/15 05:39:03;;;;;;;31.02;22.00;;;;;;;;;;6272091;22;20015;-71
2024/03/15 05:41:29;;;;;;;31.30;22.63;;;;;;;;;;6272041;22;20094;-70
2024/03/15 05:43:56;;;;;;;31.48;23.27;;;;;;;;;;6272819;22;20039;-70
2024/03/15 05:46:22;;;;;;;33.97;22.33;;;;;;;;;;6272812;22;20015;-71
2024/03/15 05:48:48;;;;;;;31.90;21.95;;;;;;;;;;6274198;22;20581;-70
2024/03/15 05:51:14;;;;;;;31.27;23.63;;;;;;;;;;6273321;22;20053;-71
2024/03/15 05:53:40;;;;;;;28.45;20.92;;;;;;;;;;6271274;22;20469;-72
2024/03/15 05:56:07;;;;;;;30.27;22.90;;;;;;;;;;6272013;22;20015;-71
2024/03/15 05:58:34;;;;;;;27.63;20.80;;;;;;;;;;6272683;22;20011;-72
2024/03/15 06:00:59;;;;;;;30.45;22.05;;;;;;;;;;6273913;22;20050;-71
2024/03/15 06:03:25;;;;;;;29.98;21.33;;;;;;;;;;6245323;22;20486;-71
2024/03/15 06:05:51;;;;;;;29.05;21.45;;;;;;;;;;6274229;22;20028;-72
2024/03/15 06:08:36;;;;;;;26.65;20.05;;;;;;;;;;6271632;22;20012;-71
2024/03/15 06:11:03;;;;;;;30.15;22.05;;;;;;;;;;6273197;22;20572;-72
2024/03/15 06:13:29;;;;;;;34.67;22.30;;;;;;;;;;6272084;22;20044;-71
2024/03/15 06:15:55;;;;;;;30.75;23.98;;;;;;;;;;6245696;22;20019;-72
2024/03/15 06:18:21;;;;;;;29.88;21.75;;;;;;;;;;6273345;22;20011;-72
2024/03/15 06:20:46;;;;;;;23.20;20.65;;;;;;;;;;6270770;22;20497;-72
2024/03/15 06:23:12;;;;;;;21.58;16.42;;;;;;;;;;6269929;22;20369;-72
2024/03/15 06:25:40;;;;;;;26.05;20.02;;;;;;;;;;6270983;22;20819;-73
2024/03/15 06:28:08;;;;;;;23.88;18.88;;;;;;;;;;6271042;22;20015;-73
2024/03/15 06:30:34;;;;;;;20.63;15.43;;;;;;;;;;6245964;22;20597;-71
2024/03/15 06:33:02;;;;;;;15.68;12.15;;;;;;;;;;6270691;22;20719;-72
2024/03/15 06:35:28;;;;;;;18.55;16.23;;;;;;;;;;6246795;22;20007;-75
2024/03/15 06:38:06;;;;;;;21.40;19.10;;;;;;;;;;6272647;22;20043;-74
2024/03/15 06:43:35;;;;;;;26.15;22.73;;;;;;;;;;6242531;22;20046;-73
2024/03/15 06:46:20;;;;;;;22.10;18.55;;;;;;;;;;6270929;22;20057;-74
2024/03/15 06:48:59;;;;;;;24.67;18.83;;;;;;;;;;6272998;22;20015;-72
2024/03/15 06:54:11;;;;;;;29.13;20.58;;;;;;;;;;6272193;22;20027;-72
2024/03/15 06:56:37;;;;;;;15.18;11.32;;;;;;;;;;6220523;22;20507;-73
2024/03/15 06:59:04;;;;;;;23.85;18.50;;;;;;;;;;6296653;22;20100;-72
2024/03/15 07:01:30;;;;;;;31.13;21.83;;;;;;;;;;6272974;22;20094;-72
2024/03/15 07:03:58;;;;;;;31.38;19.73;;;;;;;;;;6271218;22;20040;-72
2024/03/15 07:06:25;;;;;;;26.67;20.30;;;;;;;;;;6271741;22;20090;-73
2024/03/15 07:08:51;;;;;;;27.08;17.10;;;;;;;;;;6272295;22;20452;-73
2024/03/15 07:11:18;;;;;;;27.52;20.85;;;;;;;;;;6273063;22;20019;-73
2024/03/15 07:13:45;;;;;;;25.40;18.23;;;;;;;;;;6219669;22;20020;-72
2024/03/15 07:16:11;;;;;;;18.63;15.98;;;;;;;;;;6272467;22;20019;-74
2024/03/15 07:18:37;;;;;;;22.63;17.65;;;;;;;;;;6220426;22;20007;-72
2024/03/15 07:21:03;;;;;;;22.67;17.50;;;;;;;;;;6271488;22;20095;-74
2024/03/15 07:23:31;;;;;;;22.70;18.23;;;;;;;;;;6270108;22;20090;-73
2024/03/15 07:25:57;;;;;;;21.90;18.40;;;;;;;;;;6272249;22;20011;-70
2024/03/15 07:28:44;;;;;;;23.50;17.20;;;;;;;;;;6272573;22;20008;-70
2024/03/15 07:31:28;;;;;;;19.02;15.68;;;;;;;;;;6272496;22;20266;-71
2024/03/15 07:33:55;;;;;;;25.52;21.50;;;;;;;;;;6269685;22;20011;-72
2024/03/15 07:36:21;;;;;;;21.63;16.50;;;;;;;;;;6246104;22;20076;-75
2024/03/15 07:38:47;;;;;;;24.27;16.90;;;;;;;;;;6272495;22;20007;-74
2024/03/15 07:41:34;;;;;;;24.85;19.85;;;;;;;;;;6244783;22;20019;-74
2024/03/15 07:44:00;;;;;;;21.88;18.02;;;;;;;;;;6273105;22;20019;-74
2024/03/15 07:46:27;;;;;;;21.40;16.65;;;;;;;;;;6272917;22;20015;-76
2024/03/15 07:48:53;;;;;;;28.02;20.35;;;;;;;;;;6272351;22;20452;-75
2024/03/15 07:51:19;;;;;;;26.20;19.98;;;;;;;;;;6271868;22;20019;-76
2024/03/15 07:53:46;;;;;;;27.52;18.80;;;;;;;;;;6245084;22;20019;-75
2024/03/15 07:56:12;;;;;;;26.33;17.65;;;;;;;;;;6274038;22;20077;-75
2024/03/15 07:58:38;;;;;;;30.58;19.98;;;;;;;;;;6246330;22;20008;-75
2024/03/15 08:01:10;;;;;;;26.42;17.35;;;;;;;;;;6273774;22;20024;-74
2024/03/15 08:03:36;;;;;;;27.70;19.75;;;;;;;;;;6272059;22;20372;-74
2024/03/15 08:06:05;;;;;;;26.70;18.73;;;;;;;;;;6272962;22;20086;-74
2024/03/15 08:08:34;;;;;;;20.42;16.15;;;;;;;;;;6221300;22;20494;-73
2024/03/15 08:11:00;;;;;;;21.80;18.30;;;;;;;;;;6272573;22;20065;-74
2024/03/15 08:13:27;;;;;;;26.35;19.65;;;;;;;;;;6278589;22;20011;-74
2024/03/15 08:15:54;;;;;;;20.92;16.40;;;;;;;;;;6275650;22;20041;-74
2024/03/15 08:18:24;;;;;;;21.55;16.90;;;;;;;;;;6246476;22;20004;-74
2024/03/15 08:20:50;;;;;;;20.53;15.90;;;;;;;;;;6221808;22;20077;-72
2024/03/15 08:23:17;;;;;;;21.73;18.33;;;;;;;;;;6269657;22;20035;-74
2024/03/15 08:25:44;;;;;;;22.38;17.23;;;;;;;;;;6273097;22;20024;-74
2024/03/15 08:28:13;;;;;;;25.05;17.45;;;;;;;;;;6272655;22;20035;-73
2024/03/15 08:30:47;;;;;;;19.45;16.20;;;;;;;;;;6246641;22;20524;-74
2024/03/15 08:33:13;;;;;;;26.13;18.98;;;;;;;;;;6271552;22;20020;-72
2024/03/15 08:35:41;;;;;;;15.55;11.45;;;;;;;;;;6271203;22;20018;-73
2024/03/15 08:38:07;;;;;;;20.27;16.90;;;;;;;;;;6272900;22;20012;-74
2024/03/15 08:40:33;;;;;;;19.73;17.35;;;;;;;;;;6271457;22;20023;-73
2024/03/15 08:43:00;;;;;;;22.65;18.35;;;;;;;;;;6271788;22;20097;-76
2024/03/15 08:45:29;;;;;;;25.02;19.83;;;;;;;;;;6274544;22;20016;-74
2024/03/15 08:47:55;;;;;;;26.55;16.88;;;;;;;;;;6264131;22;20516;-74
2024/03/15 08:50:21;;;;;;;22.05;17.42;;;;;;;;;;6265039;22;20008;-73
2024/03/15 08:52:48;;;;;;;18.15;13.98;;;;;;;;;;6269631;22;20023;-74
2024/03/15 08:55:15;;;;;;;21.73;15.88;;;;;;;;;;6270664;22;20332;-73
2024/03/15 08:57:47;;;;;;;19.02;16.58;;;;;;;;;;6270386;22;20012;-73
2024/03/15 09:00:13;;;;;;;20.33;16.13;;;;;;;;;;6269582;22;20145;-73
2024/03/15 09:02:39;;;;;;;21.42;16.65;;;;;;;;;;6269268;22;20480;-72
2024/03/15 09:05:11;;;;;;;21.02;16.85;;;;;;;;;;6269431;22;20138;-74
2024/03/15 09:07:37;;;;;;;22.42;18.00;;;;;;;;;;6270252;22;20012;-74
2024/03/15 09:10:07;;;;;;;18.83;16.77;;;;;;;;;;6267534;22;20007;-73
2024/03/15 09:12:34;;;;;;;17.48;14.35;;;;;;;;;;6226442;22;20463;-73
2024/03/15 09:15:00;;;;;;;19.20;16.15;;;;;;;;;;6268056;22;20015;-72
2024/03/15 09:17:28;;;;;;;17.33;13.98;;;;;;;;;;6270559;22;20388;-74
2024/03/15 09:19:57;;;;;;;16.92;14.00;;;;;;;;;;6266905;22;20016;-73
2024/03/15 09:22:24;;;;;;;21.65;16.35;;;;;;;;;;6241208;22;20096;-74
2024/03/15 09:24:52;;;;;;;19.88;14.77;;;;;;;;;;6244390;22;20016;-72
2024/03/15 09:27:23;;;;;;;23.35;14.77;;;;;;;;;;6269710;22;20012;-74
2024/03/15 09:30:45;;;;;;;21.33;17.98;;;;;;;;;;6270607;22;20338;-73
2024/03/15 09:33:18;;;;;;;20.63;16.67;;;;;;;;;;6267455;22;20020;-74
2024/03/15 09:36:17;;;;;;;14.48;12.25;;;;;;;;;;6211970;22;20027;-72
2024/03/15 09:38:46;;;;;;;23.05;16.65;;;;;;;;;;6267703;22;20460;-74
2024/03/15 09:41:53;;;;;;;21.23;16.10;;;;;;;;;;6241327;22;20098;-74
2024/03/15 09:44:39;;;;;;;16.83;14.10;;;;;;;;;;6266510;22;20035;-73
2024/03/15 09:47:05;;;;;;;20.20;14.75;;;;;;;;;;6268391;22;20399;-74
2024/03/15 09:49:37;;;;;;;19.20;15.10;;;;;;;;;;6268367;22;20309;-74
2024/03/15 09:52:11;;;;;;;15.60;13.88;;;;;;;;;;6202770;22;20322;-74
2024/03/15 09:55:21;;;;;;;21.05;15.88;;;;;;;;;;6249483;22;20007;-74
2024/03/15 09:58:37;;;;;;;28.02;17.13;;;;;;;;;;6241356;22;20588;-74
2024/03/15 10:01:01;;;;;;;22.38;15.80;;;;;;;;;;6266168;22;20047;-72
2024/03/15 10:03:42;;;;;;;27.05;16.55;;;;;;;;;;6254001;22;20015;-72
2024/03/15 10:07:03;;;;;;;17.00;13.90;;;;;;;;;;6228307;22;20034;-72
2024/03/15 10:09:32;;;;;;;19.02;14.35;;;;;;;;;;6254989;22;20176;-73
2024/03/15 10:12:28;;;;;;;19.73;17.13;;;;;;;;;;6236778;22;20095;-72
2024/03/15 10:15:20;;;;;;;23.63;14.20;;;;;;;;;;6248202;22;20015;-73
2024/03/15 10:18:01;;;;;;;14.55;12.93;;;;;;;;;;6258607;22;20046;-73
2024/03/15 10:20:36;;;;;;;21.13;17.13;;;;;;;;;;6268606;22;20027;-73
2024/03/15 10:23:02;;;;;;;21.13;14.65;;;;;;;;;;6265754;22;20016;-72
2024/03/15 10:28:51;;;;;;;21.65;16.73;;;;;;;;;;6241255;22;20015;-70
2024/03/15 10:36:08;;;;;;;15.25;12.50;;;;;;;;;;6144120;23;20028;-74
2024/03/15 10:39:58;;;;;;;;;;;;;;;;;;;;;
2024/03/15 10:42:36;;;;;;;19.95;14.18;;;;;;;;;;5984652;23;20078;-73
2024/03/15 10:45:49;;;;;;;;;;;;;;;;;;;;;
2024/03/15 10:53:05;;;;;;;17.70;13.50;;;;;;;;;;6024441;23;20022;-70
2024/03/15 10:55:36;;;;;;;18.42;12.90;;;;;;;;;;6067118;23;20014;-71
2024/03/15 10:58:06;;;;;;;18.83;12.07;;;;;;;;;;6069119;23;20117;-73
2024/03/15 11:00:36;;;;;;;20.42;15.15;;;;;;;;;;6132359;23;20055;-72
2024/03/15 11:03:33;;;;;;;19.65;16.23;;;;;;;;;;6137987;23;20103;-72
2024/03/15 11:09:52;;;;;;;12.40;9.55;;;;;;;;;;6272020;22;20069;-71
2024/03/15 11:12:38;;;;;;;20.13;14.57;;;;;;;;;;6221510;22;20475;-72
2024/03/15 11:15:12;;;;;;;24.85;15.10;;;;;;;;;;6218624;22;20019;-73
2024/03/15 11:17:38;;;;;;;19.35;14.07;;;;;;;;;;6194368;22;20008;-74
2024/03/15 11:20:09;;;;;;;24.45;14.75;;;;;;;;;;6241578;22;20364;-74
2024/03/15 11:22:36;;;;;;;27.30;18.38;;;;;;;;;;6217399;22;20019;-73
2024/03/15 11:25:13;;;;;;;26.63;15.32;;;;;;;;;;6245397;22;20043;-73
2024/03/15 11:27:56;;;;;;;23.70;14.63;;;;;;;;;;6243389;22;20043;-73
2024/03/15 11:30:27;;;;;;;30.40;18.20;;;;;;;;;;6270907;22;20045;-74
2024/03/15 11:32:57;;;;;;;16.03;12.00;;;;;;;;;;6268163;22;20042;-73
2024/03/15 11:35:31;;;;;;;27.75;17.10;;;;;;;;;;6270380;22;20012;-72
2024/03/15 11:37:57;;;;;;;30.13;15.85;;;;;;;;;;6269128;22;20012;-72
2024/03/15 11:40:26;;;;;;;17.13;13.20;;;;;;;;;;6267853;22;20043;-73
2024/03/15 11:43:09;;;;;;;26.83;14.30;;;;;;;;;;6216679;22;20086;-72
2024/03/15 11:45:48;;;;;;;27.50;14.73;;;;;;;;;;6266726;22;20019;-74
2024/03/15 11:48:24;;;;;;;22.73;13.63;;;;;;;;;;6268526;22;20014;-73
2024/03/15 11:50:51;;;;;;;35.67;16.48;;;;;;;;;;6269628;22;20562;-72
2024/03/15 11:53:18;;;;;;;26.20;16.95;;;;;;;;;;6243390;22;20015;-72
2024/03/15 11:55:57;;;;;;;25.75;16.00;;;;;;;;;;6269896;22;20015;-72
2024/03/15 11:58:48;;;;;;;28.38;15.35;;;;;;;;;;6265341;22;20035;-72
2024/03/15 12:01:24;;;;;;;29.88;17.05;;;;;;;;;;6268455;22;20054;-71
2024/03/15 12:03:50;;;;;;;38.10;18.95;;;;;;;;;;6213967;22;20011;-71
2024/03/15 12:06:19;;;;;;;30.92;16.17;;;;;;;;;;6268577;22;20051;-72
2024/03/15 12:08:44;;;;;;;34.17;16.77;;;;;;;;;;6267816;22;20397;-73
2024/03/15 12:11:13;;;;;;;32.35;17.20;;;;;;;;;;6270419;22;20094;-72
2024/03/15 12:13:39;;;;;;;23.08;14.35;;;;;;;;;;6240546;22;20094;-72
2024/03/15 12:16:05;;;;;;;24.17;14.40;;;;;;;;;;6267230;22;20406;-73
2024/03/15 12:18:31;;;;;;;23.73;17.58;;;;;;;;;;6268185;22;20030;-71
2024/03/15 12:20:57;;;;;;;25.35;16.30;;;;;;;;;;6267081;22;20471;-72
2024/03/15 12:23:23;;;;;;;21.13;13.93;;;;;;;;;;6269634;22;20100;-73
2024/03/15 12:25:49;;;;;;;21.25;13.93;;;;;;;;;;6268793;22;20016;-74
2024/03/15 12:28:19;;;;;;;22.58;12.98;;;;;;;;;;6242605;22;20008;-72
2024/03/15 12:30:45;;;;;;;19.95;14.23;;;;;;;;;;6269904;22;20016;-74
2024/03/15 12:33:12;;;;;;;17.92;13.70;;;;;;;;;;6266989;22;20072;-70
2024/03/15 12:35:40;;;;;;;24.30;16.13;;;;;;;;;;6269068;22;20065;-71
2024/03/15 12:38:08;;;;;;;17.27;13.15;;;;;;;;;;6268827;22;20014;-72
2024/03/15 12:40:34;;;;;;;17.88;12.50;;;;;;;;;;6267667;22;20023;-72
2024/03/15 12:43:08;;;;;;;24.50;15.77;;;;;;;;;;6235706;22;20015;-72
2024/03/15 12:45:38;;;;;;;15.13;11.00;;;;;;;;;;6261451;22;20023;-71
2024/03/15 12:48:04;;;;;;;19.85;13.05;;;;;;;;;;6269473;22;20008;-72
2024/03/15 12:50:51;;;;;;;16.00;12.85;;;;;;;;;;6241398;22;20502;-71
2024/03/15 12:53:29;;;;;;;18.05;14.18;;;;;;;;;;6267049;22;20330;-72
2024/03/15 12:55:58;;;;;;;16.58;13.52;;;;;;;;;;6241772;22;20392;-72
2024/03/15 12:58:24;;;;;;;14.68;12.93;;;;;;;;;;6266873;22;20014;-72
2024/03/15 13:00:54;;;;;;;17.13;13.60;;;;;;;;;;6269534;22;20066;-74
2024/03/15 13:03:20;;;;;;;18.58;13.40;;;;;;;;;;6229377;22;20352;-73
2024/03/15 13:05:46;;;;;;;27.65;14.45;;;;;;;;;;6267869;22;20065;-71
2024/03/15 13:08:14;;;;;;;15.88;11.10;;;;;;;;;;6241633;22;20018;-73
2024/03/15 13:10:42;;;;;;;21.00;13.25;;;;;;;;;;6242086;22;20015;-72
2024/03/15 13:13:08;;;;;;;22.13;14.77;;;;;;;;;;6120674;22;20026;-73
2024/03/15 13:15:36;;;;;;;31.05;15.63;;;;;;;;;;6084278;23;20069;-71
2024/03/15 13:18:02;;;;;;;24.60;14.38;;;;;;;;;;6084870;23;20113;-72
2024/03/15 13:20:29;;;;;;;21.33;14.32;;;;;;;;;;6084023;23;20062;-73
2024/03/15 13:22:56;;;;;;;17.67;11.60;;;;;;;;;;6150348;22;20012;-73
2024/03/15 13:25:28;;;;;;;13.57;10.23;;;;;;;;;;6267696;22;20368;-73
2024/03/15 13:27:59;;;;;;;30.75;14.82;;;;;;;;;;6265908;22;20026;-72
2024/03/15 13:30:47;;;;;;;20.33;13.88;;;;;;;;;;6267150;22;20042;-71
2024/03/15 13:33:39;;;;;;;18.15;12.15;;;;;;;;;;6228125;22;20538;-73
2024/03/15 13:36:12;;;;;;;25.27;16.08;;;;;;;;;;6266416;22;20019;-72
2024/03/15 13:45:22;;;;;;;16.92;13.05;;;;;;;;;;6142568;22;20571;-72
2024/03/15 13:48:12;;;;;;;23.67;15.63;;;;;;;;;;6266488;22;20004;-72
2024/03/15 13:51:27;;;;;;;22.15;13.38;;;;;;;;;;6238593;22;20042;-72
2024/03/15 13:54:02;;;;;;;19.02;12.50;;;;;;;;;;6251317;22;20057;-71
2024/03/15 13:56:53;;;;;;;25.85;15.32;;;;;;;;;;6218457;22;20012;-70
2024/03/15 13:59:51;;;;;;;18.83;13.75;;;;;;;;;;6268083;22;20099;-72
2024/03/15 14:02:31;;;;;;;23.73;14.02;;;;;;;;;;6213818;22;20110;-73
2024/03/15 14:05:22;;;;;;;24.98;15.85;;;;;;;;;;6268625;22;20482;-72
2024/03/15 14:10:36;;;;;;;27.23;15.75;;;;;;;;;;6268763;22;20055;-72
2024/03/15 14:13:07;;;;;;;;;;;;;;;;;;6255914;22;20012;-72
2024/03/15 14:15:34;;;;;;;24.38;15.68;;;;;;;;;;6268467;22;19907;-73
2024/03/15 14:18:02;;;;;;;23.35;14.45;;;;;;;;;;6268733;22;20588;-72
2024/03/15 14:20:48;;;;;;;28.00;16.17;;;;;;;;;;6246212;22;20020;-73
2024/03/15 14:23:17;;;;;;;28.88;15.75;;;;;;;;;;6266011;22;20099;-72
2024/03/15 14:25:45;;;;;;;26.48;16.98;;;;;;;;;;6269447;22;20039;-71
2024/03/15 14:28:17;;;;;;;32.60;16.33;;;;;;;;;;6268275;22;20464;-72
2024/03/15 14:30:59;;;;;;;24.92;15.32;;;;;;;;;;6245295;22;20018;-72
2024/03/15 14:33:38;;;;;;;34.10;18.70;;;;;;;;;;6256167;22;20121;-71
2024/03/15 14:36:11;;;;;;;24.50;15.07;;;;;;;;;;6243566;22;20111;-73
2024/03/15 14:39:15;;;;;;;23.15;15.45;;;;;;;;;;6248600;22;20022;-71
2024/03/15 14:41:56;;;;;;;25.48;16.00;;;;;;;;;;6272808;22;20073;-74
2024/03/15 14:44:44;;;;;;;27.00;16.27;;;;;;;;;;6246283;22;20019;-74
2024/03/15 14:47:22;;;;;;;21.52;13.55;;;;;;;;;;6268822;22;20050;-73
2024/03/15 14:49:52;;;;;;;16.25;13.27;;;;;;;;;;6243231;22;20007;-74
2024/03/15 14:52:18;;;;;;;21.58;14.55;;;;;;;;;;6209457;22;20035;-75
2024/03/15 14:54:59;;;;;;;28.88;15.25;;;;;;;;;;6217719;22;20363;-73
2024/03/15 14:57:25;;;;;;;26.92;15.48;;;;;;;;;;6242747;22;20014;-73
2024/03/15 15:00:31;;;;;;;24.60;14.32;;;;;;;;;;6243828;22;20034;-72
2024/03/15 15:02:58;;;;;;;26.35;16.40;;;;;;;;;;6239243;22;20095;-73
2024/03/15 15:09:25;;;;;;;26.08;14.57;;;;;;;;;;6250530;22;20020;-72
2024/03/15 15:11:55;;;;;;;;;;;;;;;;;;6165322;22;20015;-73
2024/03/15 15:14:22;;;;;;;28.15;19.95;;;;;;;;;;6294861;22;19907;-72
2024/03/15 15:16:54;;;;;;;25.40;16.08;;;;;;;;;;6246422;22;20095;-73